sensor_id;sensor_type;location;lat;lon;timestamp;pressure;altitude;pressure_sealevel;temperature;humidity
64388;BME280;50709;52.648;4.764;2023-06-10T00:00:18;101654.31;;;22.85;49.71
64388;BME280;50709;52.648;4.764;2023-06-10T00:02:45;101647.41;;;23.03;49.58
64388;BME280;50709;52.648;4.764;2023-06-10T00:05:12;101651.00;;;23.02;49.26
64388;BME280;50709;52.648;4.764;2023-06-10T00:07:37;101633.47;;;22.96;48.53
64388;BME280;50709;52.648;4.764;2023-06-10T00:10:04;101648.53;;;22.72;49.12
64388;BME280;50709;52.648;4.764;2023-06-10T00:12:31;101654.97;;;22.90;48.46
64388;BME280;50709;52.648;4.764;2023-06-10T00:15:05;101651.59;;;22.87;48.92
64388;BME280;50709;52.648;4.764;2023-06-10T00:17:30;101654.16;;;22.39;48.43
64388;BME280;50709;52.648;4.764;2023-06-10T00:19:57;101651.00;;;23.02;48.50
64388;BME280;50709;52.648;4.764;2023-06-10T00:22:23;101649.72;;;22.89;48.86
64388;BME280;50709;52.648;4.764;2023-06-10T00:24:49;101661.91;;;22.71;48.42
64388;BME280;50709;52.648;4.764;2023-06-10T00:27:16;101663.97;;;23.11;48.84
64388;BME280;50709;52.648;4.764;2023-06-10T00:29:41;101650.94;;;22.55;47.67
64388;BME280;50709;52.648;4.764;2023-06-10T00:32:07;101669.19;;;22.91;48.12
64388;BME280;50709;52.648;4.764;2023-06-10T00:34:33;101663.47;;;22.51;48.85
64388;BME280;50709;52.648;4.764;2023-06-10T00:36:58;101672.66;;;22.42;48.38
64388;BME280;50709;52.648;4.764;2023-06-10T00:39:24;101665.75;;;22.62;48.60
64388;BME280;50709;52.648;4.764;2023-06-10T00:41:49;101661.50;;;22.04;48.14
64388;BME280;50709;52.648;4.764;2023-06-10T00:44:15;101660.13;;;22.46;47.98
64388;BME280;50709;52.648;4.764;2023-06-10T00:46:41;101666.84;;;22.29;48.50
64388;BME280;50709;52.648;4.764;2023-06-10T00:49:07;101658.88;;;22.56;47.18
64388;BME280;50709;52.648;4.764;2023-06-10T00:51:34;101671.53;;;22.75;47.53
64388;BME280;50709;52.648;4.764;2023-06-10T00:54:00;101662.25;;;22.08;48.12
64388;BME280;50709;52.648;4.764;2023-06-10T00:56:26;101669.75;;;22.50;47.65
64388;BME280;50709;52.648;4.764;2023-06-10T00:58:53;101668.84;;;22.23;48.19
64388;BME280;50709;52.648;4.764;2023-06-10T01:01:19;101670.81;;;22.70;47.42
64388;BME280;50709;52.648;4.764;2023-06-10T01:03:45;101672.81;;;22.11;47.01
64388;BME280;50709;52.648;4.764;2023-06-10T01:06:43;101663.63;;;22.20;46.64
64388;BME280;50709;52.648;4.764;2023-06-10T01:09:32;101678.47;;;22.00;47.93
64388;BME280;50709;52.648;4.764;2023-06-10T01:12:05;101665.56;;;22.14;46.99
64388;BME280;50709;52.648;4.764;2023-06-10T01:14:38;101671.56;;;21.94;48.03
64388;BME280;50709;52.648;4.764;2023-06-10T01:17:10;101672.13;;;22.31;46.84
64388;BME280;50709;52.648;4.764;2023-06-10T01:19:36;101678.84;;;22.43;48.09
64388;BME280;50709;52.648;4.764;2023-06-10T01:22:02;101646.34;;;22.06;47.70
64388;BME280;50709;52.648;4.764;2023-06-10T01:24:28;101642.00;;;22.04;46.70
64388;BME280;50709;52.648;4.764;2023-06-10T01:26:56;101673.97;;;22.02;47.71
64388;BME280;50709;52.648;4.764;2023-06-10T01:29:58;101679.88;;;22.39;47.25
64388;BME280;50709;52.648;4.764;2023-06-10T01:32:35;101679.41;;;22.26;48.13
64388;BME280;50709;52.648;4.764;2023-06-10T01:35:05;101660.78;;;21.99;47.16
64388;BME280;50709;52.648;4.764;2023-06-10T01:37:31;101672.44;;;22.22;47.71
64388;BME280;50709;52.648;4.764;2023-06-10T01:40:00;101663.81;;;22.15;47.61
64388;BME280;50709;52.648;4.764;2023-06-10T01:42:29;101678.25;;;22.06;47.32
64388;BME280;50709;52.648;4.764;2023-06-10T01:44:54;101670.91;;;22.41;47.89
64388;BME280;50709;52.648;4.764;2023-06-10T01:47:20;101665.97;;;21.75;47.65
64388;BME280;50709;52.648;4.764;2023-06-10T01:49:45;101672.16;;;22.04;47.25
64388;BME280;50709;52.648;4.764;2023-06-10T01:52:11;101674.59;;;22.10;47.16
64388;BME280;50709;52.648;4.764;2023-06-10T01:54:36;101676.13;;;21.91;47.51
64388;BME280;50709;52.648;4.764;2023-06-10T01:57:02;101685.00;;;21.61;48.91
64388;BME280;50709;52.648;4.764;2023-06-10T01:59:27;101669.53;;;21.44;48.99
64388;BME280;50709;52.648;4.764;2023-06-10T02:01:53;101680.75;;;21.56;48.21
64388;BME280;50709;52.648;4.764;2023-06-10T02:04:18;101673.81;;;21.80;48.64
64388;BME280;50709;52.648;4.764;2023-06-10T02:06:44;101645.53;;;21.17;48.38
64388;BME280;50709;52.648;4.764;2023-06-10T02:09:10;101677.94;;;21.89;47.20
64388;BME280;50709;52.648;4.764;2023-06-10T02:11:35;101674.44;;;21.60;48.46
64388;BME280;50709;52.648;4.764;2023-06-10T02:14:01;101661.13;;;21.88;47.33
64388;BME280;50709;52.648;4.764;2023-06-10T02:16:26;101674.56;;;21.83;48.61
64388;BME280;50709;52.648;4.764;2023-06-10T02:18:51;101678.50;;;21.70;46.97
64388;BME280;50709;52.648;4.764;2023-06-10T02:21:17;101684.03;;;21.64;46.96
64388;BME280;50709;52.648;4.764;2023-06-10T02:23:42;101681.25;;;22.24;46.83
64388;BME280;50709;52.648;4.764;2023-06-10T02:26:08;101665.91;;;21.77;48.69
64388;BME280;50709;52.648;4.764;2023-06-10T02:28:33;101642.25;;;21.39;47.93
64388;BME280;50709;52.648;4.764;2023-06-10T02:30:59;101690.38;;;21.88;47.53
64388;BME280;50709;52.648;4.764;2023-06-10T02:33:24;101682.19;;;21.66;47.68
64388;BME280;50709;52.648;4.764;2023-06-10T02:35:50;101688.44;;;21.93;48.11
64388;BME280;50709;52.648;4.764;2023-06-10T02:38:16;101686.00;;;21.27;49.18
64388;BME280;50709;52.648;4.764;2023-06-10T02:40:42;101693.44;;;21.44;49.73
64388;BME280;50709;52.648;4.764;2023-06-10T02:43:08;101697.66;;;21.53;49.29
64388;BME280;50709;52.648;4.764;2023-06-10T02:45:34;101678.28;;;21.48;49.83
64388;BME280;50709;52.648;4.764;2023-06-10T02:47:59;101665.97;;;20.84;49.54
64388;BME280;50709;52.648;4.764;2023-06-10T02:50:25;101680.34;;;21.38;50.00
64388;BME280;50709;52.648;4.764;2023-06-10T02:52:50;101684.88;;;21.05;49.99
64388;BME280;50709;52.648;4.764;2023-06-10T02:55:16;101680.34;;;21.38;49.89
64388;BME280;50709;52.648;4.764;2023-06-10T02:57:41;101681.38;;;21.34;48.89
64388;BME280;50709;52.648;4.764;2023-06-10T03:00:07;101683.56;;;20.88;50.21
64388;BME280;50709;52.648;4.764;2023-06-10T03:02:37;101688.13;;;21.14;49.98
64388;BME280;50709;52.648;4.764;2023-06-10T03:05:04;101674.28;;;21.03;50.28
64388;BME280;50709;52.648;4.764;2023-06-10T03:07:30;101684.91;;;21.03;49.89
64388;BME280;50709;52.648;4.764;2023-06-10T03:09:56;101686.81;;;20.98;50.59
64388;BME280;50709;52.648;4.764;2023-06-10T03:12:21;101676.25;;;20.96;51.07
64388;BME280;50709;52.648;4.764;2023-06-10T03:14:47;101675.63;;;21.18;51.08
64388;BME280;50709;52.648;4.764;2023-06-10T03:17:12;101679.44;;;21.39;50.61
64388;BME280;50709;52.648;4.764;2023-06-10T03:19:38;101694.53;;;21.68;50.00
64388;BME280;50709;52.648;4.764;2023-06-10T03:22:11;101696.84;;;21.49;50.28
64388;BME280;50709;52.648;4.764;2023-06-10T03:24:37;101689.78;;;21.48;49.51
64388;BME280;50709;52.648;4.764;2023-06-10T03:27:06;101650.19;;;21.09;51.14
64388;BME280;50709;52.648;4.764;2023-06-10T03:29:32;101689.69;;;21.22;50.60
64388;BME280;50709;52.648;4.764;2023-06-10T03:31:58;101691.47;;;21.51;50.41
64388;BME280;50709;52.648;4.764;2023-06-10T03:34:24;101687.91;;;20.91;50.89
64388;BME280;50709;52.648;4.764;2023-06-10T03:36:49;101704.94;;;21.15;52.22
64388;BME280;50709;52.648;4.764;2023-06-10T03:39:16;101683.72;;;20.82;52.70
64388;BME280;50709;52.648;4.764;2023-06-10T03:41:41;101698.88;;;21.10;51.21
64388;BME280;50709;52.648;4.764;2023-06-10T03:44:07;101701.91;;;20.97;51.62
64388;BME280;50709;52.648;4.764;2023-06-10T03:46:32;101697.09;;;20.79;52.43
64388;BME280;50709;52.648;4.764;2023-06-10T03:48:58;101668.19;;;21.29;51.24
64388;BME280;50709;52.648;4.764;2023-06-10T03:51:26;101701.50;;;21.11;51.57
64388;BME280;50709;52.648;4.764;2023-06-10T03:53:52;101673.53;;;20.65;52.09
64388;BME280;50709;52.648;4.764;2023-06-10T03:56:17;101692.53;;;20.84;52.07
64388;BME280;50709;52.648;4.764;2023-06-10T03:58:42;101707.16;;;20.28;53.47
64388;BME280;50709;52.648;4.764;2023-06-10T04:01:08;101707.91;;;21.03;52.56
64388;BME280;50709;52.648;4.764;2023-06-10T04:03:33;101708.31;;;20.89;53.05
64388;BME280;50709;52.648;4.764;2023-06-10T04:05:59;101714.91;;;20.74;52.97
64388;BME280;50709;52.648;4.764;2023-06-10T04:08:24;101700.34;;;20.20;53.93
64388;BME280;50709;52.648;4.764;2023-06-10T04:10:50;101701.41;;;20.47;53.87
64388;BME280;50709;52.648;4.764;2023-06-10T04:13:15;101711.22;;;20.43;53.60
64388;BME280;50709;52.648;4.764;2023-06-10T04:15:41;101718.00;;;20.55;53.08
64388;BME280;50709;52.648;4.764;2023-06-10T04:18:06;101719.06;;;20.84;52.79
64388;BME280;50709;52.648;4.764;2023-06-10T04:20:32;101726.19;;;20.82;53.03
64388;BME280;50709;52.648;4.764;2023-06-10T04:22:57;101716.19;;;20.92;52.53
64388;BME280;50709;52.648;4.764;2023-06-10T04:25:23;101721.91;;;21.09;52.95
64388;BME280;50709;52.648;4.764;2023-06-10T04:27:49;101714.28;;;20.97;52.80
64388;BME280;50709;52.648;4.764;2023-06-10T04:30:16;101714.75;;;20.80;53.15
64388;BME280;50709;52.648;4.764;2023-06-10T04:32:41;101721.22;;;20.68;53.06
64388;BME280;50709;52.648;4.764;2023-06-10T04:35:07;101718.66;;;20.65;53.25
64388;BME280;50709;52.648;4.764;2023-06-10T04:37:33;101721.50;;;20.92;53.38
64388;BME280;50709;52.648;4.764;2023-06-10T04:39:58;101724.78;;;20.67;53.87
64388;BME280;50709;52.648;4.764;2023-06-10T04:42:24;101722.59;;;20.84;52.89
64388;BME280;50709;52.648;4.764;2023-06-10T04:44:50;101716.88;;;20.98;53.31
64388;BME280;50709;52.648;4.764;2023-06-10T04:47:15;101724.91;;;20.97;52.93
64388;BME280;50709;52.648;4.764;2023-06-10T04:49:42;101713.38;;;21.29;52.44
64388;BME280;50709;52.648;4.764;2023-06-10T04:52:08;101731.75;;;20.73;53.44
64388;BME280;50709;52.648;4.764;2023-06-10T04:54:33;101721.59;;;21.20;53.04
64388;BME280;50709;52.648;4.764;2023-06-10T04:56:58;101725.94;;;20.91;53.00
64388;BME280;50709;52.648;4.764;2023-06-10T04:59:25;101722.13;;;20.69;54.00
64388;BME280;50709;52.648;4.764;2023-06-10T05:01:51;101738.47;;;20.86;53.71
64388;BME280;50709;52.648;4.764;2023-06-10T05:04:16;101727.03;;;20.84;53.46
64388;BME280;50709;52.648;4.764;2023-06-10T05:06:42;101728.66;;;20.90;53.59
64388;BME280;50709;52.648;4.764;2023-06-10T05:09:07;101722.19;;;20.98;53.23
64388;BME280;50709;52.648;4.764;2023-06-10T05:11:33;101728.97;;;21.10;53.31
64388;BME280;50709;52.648;4.764;2023-06-10T05:13:58;101723.50;;;20.49;54.67
64388;BME280;50709;52.648;4.764;2023-06-10T05:16:23;101727.34;;;20.72;53.89
64388;BME280;50709;52.648;4.764;2023-06-10T05:18:49;101721.44;;;20.95;53.52
64388;BME280;50709;52.648;4.764;2023-06-10T05:21:34;101726.19;;;20.47;54.26
64388;BME280;50709;52.648;4.764;2023-06-10T05:24:00;101727.91;;;20.84;53.61
64388;BME280;50709;52.648;4.764;2023-06-10T05:26:25;101723.63;;;20.79;53.80
64388;BME280;50709;52.648;4.764;2023-06-10T05:28:52;101731.22;;;20.93;53.76
64388;BME280;50709;52.648;4.764;2023-06-10T05:31:17;101738.31;;;20.92;53.62
64388;BME280;50709;52.648;4.764;2023-06-10T05:33:44;101737.94;;;21.06;53.49
64388;BME280;50709;52.648;4.764;2023-06-10T05:36:09;101732.47;;;21.12;52.97
64388;BME280;50709;52.648;4.764;2023-06-10T05:38:35;101743.28;;;21.05;53.21
64388;BME280;50709;52.648;4.764;2023-06-10T05:41:00;101731.25;;;20.91;53.43
64388;BME280;50709;52.648;4.764;2023-06-10T05:43:26;101729.34;;;21.28;52.50
64388;BME280;50709;52.648;4.764;2023-06-10T05:45:52;101708.63;;;21.41;51.87
64388;BME280;50709;52.648;4.764;2023-06-10T05:48:17;101742.16;;;21.76;51.53
64388;BME280;50709;52.648;4.764;2023-06-10T05:50:46;101739.25;;;21.52;51.66
64388;BME280;50709;52.648;4.764;2023-06-10T05:53:14;101745.72;;;21.44;51.80
64388;BME280;50709;52.648;4.764;2023-06-10T05:55:44;101736.38;;;21.90;50.32
64388;BME280;50709;52.648;4.764;2023-06-10T05:58:12;101748.53;;;22.27;49.64
64388;BME280;50709;52.648;4.764;2023-06-10T06:00:57;101743.56;;;22.45;49.26
64388;BME280;50709;52.648;4.764;2023-06-10T06:03:23;101734.41;;;22.79;48.53
64388;BME280;50709;52.648;4.764;2023-06-10T06:05:48;101734.31;;;22.55;48.48
64388;BME280;50709;52.648;4.764;2023-06-10T06:08:14;101716.47;;;22.84;48.22
64388;BME280;50709;52.648;4.764;2023-06-10T06:10:42;101731.81;;;22.77;48.34
64388;BME280;50709;52.648;4.764;2023-06-10T06:13:08;101742.28;;;22.82;47.99
64388;BME280;50709;52.648;4.764;2023-06-10T06:15:33;101742.41;;;23.04;47.74
64388;BME280;50709;52.648;4.764;2023-06-10T06:17:59;101728.53;;;23.20;47.44
64388;BME280;50709;52.648;4.764;2023-06-10T06:20:24;101747.22;;;22.93;47.53
64388;BME280;50709;52.648;4.764;2023-06-10T06:22:51;101738.25;;;22.70;47.53
64388;BME280;50709;52.648;4.764;2023-06-10T06:25:18;101745.06;;;22.79;47.63
64388;BME280;50709;52.648;4.764;2023-06-10T06:27:44;101738.63;;;23.59;46.68
64388;BME280;50709;52.648;4.764;2023-06-10T06:30:09;101749.56;;;23.02;47.43
64388;BME280;50709;52.648;4.764;2023-06-10T06:32:35;101744.53;;;23.20;46.66
64388;BME280;50709;52.648;4.764;2023-06-10T06:35:01;101746.81;;;23.30;47.02
64388;BME280;50709;52.648;4.764;2023-06-10T06:37:26;101745.94;;;23.30;46.59
64388;BME280;50709;52.648;4.764;2023-06-10T06:40:12;101734.22;;;23.09;46.69
64388;BME280;50709;52.648;4.764;2023-06-10T06:42:39;101745.78;;;22.84;47.54
64388;BME280;50709;52.648;4.764;2023-06-10T06:45:05;101738.59;;;23.37;46.76
64388;BME280;50709;52.648;4.764;2023-06-10T06:47:30;101744.25;;;23.51;46.36
64388;BME280;50709;52.648;4.764;2023-06-10T06:49:56;101745.25;;;23.48;46.83
64388;BME280;50709;52.648;4.764;2023-06-10T06:52:21;101740.13;;;22.93;47.33
64388;BME280;50709;52.648;4.764;2023-06-10T06:55:07;101734.63;;;23.47;46.19
64388;BME280;50709;52.648;4.764;2023-06-10T06:57:33;101740.56;;;24.01;45.56
64388;BME280;50709;52.648;4.764;2023-06-10T06:59:58;101730.63;;;23.59;45.89
64388;BME280;50709;52.648;4.764;2023-06-10T07:02:23;101734.41;;;23.53;44.66
64388;BME280;50709;52.648;4.764;2023-06-10T07:04:52;101743.50;;;23.95;45.59
64388;BME280;50709;52.648;4.764;2023-06-10T07:07:20;101744.19;;;23.76;44.94
64388;BME280;50709;52.648;4.764;2023-06-10T07:10:06;101751.44;;;23.96;45.30
64388;BME280;50709;52.648;4.764;2023-06-10T07:12:31;101743.50;;;23.95;45.70
64388;BME280;50709;52.648;4.764;2023-06-10T07:14:58;101746.59;;;23.37;46.24
64388;BME280;50709;52.648;4.764;2023-06-10T07:17:23;101746.91;;;23.75;46.03
64388;BME280;50709;52.648;4.764;2023-06-10T07:19:50;101750.41;;;23.77;44.53
64388;BME280;50709;52.648;4.764;2023-06-10T07:22:16;101749.59;;;23.98;44.24
64388;BME280;50709;52.648;4.764;2023-06-10T07:24:42;101747.59;;;24.26;44.93
64388;BME280;50709;52.648;4.764;2023-06-10T07:27:08;101741.41;;;24.68;44.00
64388;BME280;50709;52.648;4.764;2023-06-10T07:29:34;101748.53;;;25.09;43.43
64388;BME280;50709;52.648;4.764;2023-06-10T07:32:02;101745.41;;;24.56;44.10
64388;BME280;50709;52.648;4.764;2023-06-10T07:34:27;101746.94;;;25.05;43.54
64388;BME280;50709;52.648;4.764;2023-06-10T07:36:53;101746.03;;;24.85;43.54
64388;BME280;50709;52.648;4.764;2023-06-10T07:39:21;101745.97;;;25.26;43.33
64388;BME280;50709;52.648;4.764;2023-06-10T07:41:47;101742.69;;;25.19;43.02
64388;BME280;50709;52.648;4.764;2023-06-10T07:44:15;101748.41;;;24.91;42.81
64388;BME280;50709;52.648;4.764;2023-06-10T07:46:40;101742.28;;;24.89;42.97
64388;BME280;50709;52.648;4.764;2023-06-10T07:49:06;101754.09;;;25.04;42.70
64388;BME280;50709;52.648;4.764;2023-06-10T07:51:31;101753.88;;;25.09;42.92
64388;BME280;50709;52.648;4.764;2023-06-10T07:53:58;101753.44;;;25.39;42.33
64388;BME280;50709;52.648;4.764;2023-06-10T07:56:23;101752.69;;;25.16;42.82
64388;BME280;50709;52.648;4.764;2023-06-10T07:59:16;101763.00;;;25.24;42.34
64388;BME280;50709;52.648;4.764;2023-06-10T08:01:46;101749.94;;;24.97;42.24
64388;BME280;50709;52.648;4.764;2023-06-10T08:04:11;101752.88;;;24.91;43.34
64388;BME280;50709;52.648;4.764;2023-06-10T08:06:37;101763.66;;;25.29;44.58
64388;BME280;50709;52.648;4.764;2023-06-10T08:09:05;101750.00;;;25.56;41.78
64388;BME280;50709;52.648;4.764;2023-06-10T08:11:31;101760.63;;;25.17;42.01
64388;BME280;50709;52.648;4.764;2023-06-10T08:13:56;101755.44;;;25.73;41.87
64388;BME280;50709;52.648;4.764;2023-06-10T08:16:22;101753.28;;;25.23;41.44
64388;BME280;50709;52.648;4.764;2023-06-10T08:19:08;101748.38;;;25.32;41.31
64388;BME280;50709;52.648;4.764;2023-06-10T08:21:34;101754.88;;;26.22;41.70
64388;BME280;50709;52.648;4.764;2023-06-10T08:24:00;101749.34;;;25.69;40.90
64388;BME280;50709;52.648;4.764;2023-06-10T08:26:25;101727.00;;;25.51;40.59
64388;BME280;50709;52.648;4.764;2023-06-10T08:28:52;101731.84;;;25.81;39.67
64388;BME280;50709;52.648;4.764;2023-06-10T08:31:18;101762.44;;;25.95;40.03
64388;BME280;50709;52.648;4.764;2023-06-10T08:33:46;101747.41;;;26.29;40.42
64388;BME280;50709;52.648;4.764;2023-06-10T08:36:12;101759.25;;;25.86;40.16
64388;BME280;50709;52.648;4.764;2023-06-10T08:38:39;101760.03;;;26.27;39.79
64388;BME280;50709;52.648;4.764;2023-06-10T08:41:05;101738.09;;;26.73;39.84
64388;BME280;50709;52.648;4.764;2023-06-10T08:43:44;101760.34;;;26.38;39.45
64388;BME280;50709;52.648;4.764;2023-06-10T08:46:11;101748.25;;;25.93;39.65
64388;BME280;50709;52.648;4.764;2023-06-10T08:48:42;101757.47;;;26.24;40.15
64388;BME280;50709;52.648;4.764;2023-06-10T08:51:09;101755.44;;;26.29;40.20
64388;BME280;50709;52.648;4.764;2023-06-10T08:53:37;101757.72;;;26.73;39.56
64388;BME280;50709;52.648;4.764;2023-06-10T08:56:24;101767.81;;;26.31;40.39
64388;BME280;50709;52.648;4.764;2023-06-10T08:58:51;101761.72;;;26.47;40.35
64388;BME280;50709;52.648;4.764;2023-06-10T09:01:18;101759.84;;;26.84;40.56
64388;BME280;50709;52.648;4.764;2023-06-10T09:03:44;101759.53;;;26.73;40.26
64388;BME280;50709;52.648;4.764;2023-06-10T09:06:09;101743.38;;;26.74;38.84
64388;BME280;50709;52.648;4.764;2023-06-10T09:08:35;101756.50;;;26.61;39.60
64388;BME280;50709;52.648;4.764;2023-06-10T09:11:01;101743.63;;;26.33;40.42
64388;BME280;50709;52.648;4.764;2023-06-10T09:13:26;101761.34;;;27.23;40.64
64388;BME280;50709;52.648;4.764;2023-06-10T09:15:52;101754.31;;;27.20;38.90
64388;BME280;50709;52.648;4.764;2023-06-10T09:18:17;101751.59;;;26.71;39.39
64388;BME280;50709;52.648;4.764;2023-06-10T09:20:43;101762.31;;;26.52;40.62
64388;BME280;50709;52.648;4.764;2023-06-10T09:23:09;101757.94;;;27.03;40.26
64388;BME280;50709;52.648;4.764;2023-06-10T09:25:38;101749.59;;;26.75;39.96
64388;BME280;50709;52.648;4.764;2023-06-10T09:28:04;101770.97;;;26.03;40.15
64388;BME280;50709;52.648;4.764;2023-06-10T09:30:32;101734.03;;;26.46;40.84
64388;BME280;50709;52.648;4.764;2023-06-10T09:33:03;101752.97;;;26.61;40.32
64388;BME280;50709;52.648;4.764;2023-06-10T09:35:34;101761.84;;;26.61;41.76
64388;BME280;50709;52.648;4.764;2023-06-10T09:38:00;101765.34;;;26.98;40.22
64388;BME280;50709;52.648;4.764;2023-06-10T09:40:27;101741.88;;;26.86;39.45
64388;BME280;50709;52.648;4.764;2023-06-10T09:42:54;101769.22;;;26.75;40.05
64388;BME280;50709;52.648;4.764;2023-06-10T09:45:20;101762.19;;;27.41;39.62
64388;BME280;50709;52.648;4.764;2023-06-10T09:47:53;101751.88;;;27.33;39.04
64388;BME280;50709;52.648;4.764;2023-06-10T09:50:42;101754.38;;;27.03;39.03
64388;BME280;50709;52.648;4.764;2023-06-10T09:53:08;101753.56;;;27.18;39.46
64388;BME280;50709;52.648;4.764;2023-06-10T09:55:37;101763.28;;;27.03;39.25
64388;BME280;50709;52.648;4.764;2023-06-10T09:58:03;101770.38;;;27.05;38.02
64388;BME280;50709;52.648;4.764;2023-06-10T10:00:31;101767.06;;;27.66;37.81
64388;BME280;50709;52.648;4.764;2023-06-10T10:03:00;101766.38;;;27.47;37.29
64388;BME280;50709;52.648;4.764;2023-06-10T10:05:27;101768.09;;;27.14;38.06
64388;BME280;50709;52.648;4.764;2023-06-10T10:07:52;101762.66;;;27.49;37.63
64388;BME280;50709;52.648;4.764;2023-06-10T10:10:20;101764.81;;;27.75;37.50
64388;BME280;50709;52.648;4.764;2023-06-10T10:12:51;101759.41;;;28.08;36.84
64388;BME280;50709;52.648;4.764;2023-06-10T10:15:17;101759.53;;;28.37;36.97
64388;BME280;50709;52.648;4.764;2023-06-10T10:17:52;101765.47;;;28.12;35.67
64388;BME280;50709;52.648;4.764;2023-06-10T10:20:22;101754.63;;;27.81;36.06
64388;BME280;50709;52.648;4.764;2023-06-10T10:22:56;101761.97;;;27.62;36.58
64388;BME280;50709;52.648;4.764;2023-06-10T10:25:33;101763.28;;;28.49;36.02
64388;BME280;50709;52.648;4.764;2023-06-10T10:28:08;101765.09;;;27.70;36.57
64388;BME280;50709;52.648;4.764;2023-06-10T10:30:46;101760.44;;;27.74;37.04
64388;BME280;50709;52.648;4.764;2023-06-10T10:33:16;101757.47;;;27.94;36.16
64388;BME280;50709;52.648;4.764;2023-06-10T10:35:43;101755.59;;;27.80;36.03
64388;BME280;50709;52.648;4.764;2023-06-10T10:38:12;101753.50;;;28.01;35.36
64388;BME280;50709;52.648;4.764;2023-06-10T10:40:38;101752.81;;;28.14;35.75
64388;BME280;50709;52.648;4.764;2023-06-10T10:43:05;101754.44;;;28.16;36.55
64388;BME280;50709;52.648;4.764;2023-06-10T10:45:33;101702.97;;;26.95;36.37
64388;BME280;50709;52.648;4.764;2023-06-10T10:48:05;101742.84;;;28.00;36.75
64388;BME280;50709;52.648;4.764;2023-06-10T10:50:34;101741.53;;;28.07;36.66
64388;BME280;50709;52.648;4.764;2023-06-10T10:53:02;101724.69;;;28.35;34.99
64388;BME280;50709;52.648;4.764;2023-06-10T10:55:29;101711.75;;;27.96;34.88
64388;BME280;50709;52.648;4.764;2023-06-10T10:57:56;101741.44;;;28.71;36.62
64388;BME280;50709;52.648;4.764;2023-06-10T11:00:44;101736.94;;;28.56;35.26
64388;BME280;50709;52.648;4.764;2023-06-10T11:03:16;101734.34;;;28.24;34.25
64388;BME280;50709;52.648;4.764;2023-06-10T11:05:47;101734.16;;;28.57;34.42
64388;BME280;50709;52.648;4.764;2023-06-10T11:10:59;101723.84;;;28.65;34.23
64388;BME280;50709;52.648;4.764;2023-06-10T11:13:26;101730.69;;;28.55;34.34
64388;BME280;50709;52.648;4.764;2023-06-10T11:15:52;101725.69;;;28.49;35.07
64388;BME280;50709;52.648;4.764;2023-06-10T11:18:35;101722.63;;;28.55;34.40
64388;BME280;50709;52.648;4.764;2023-06-10T11:21:04;101723.97;;;28.93;33.39
64388;BME280;50709;52.648;4.764;2023-06-10T11:23:39;101696.97;;;28.65;32.98
64388;BME280;50709;52.648;4.764;2023-06-10T11:31:30;101713.41;;;28.75;34.99
64388;BME280;50709;52.648;4.764;2023-06-10T11:34:00;101704.22;;;28.94;34.82
64388;BME280;50709;52.648;4.764;2023-06-10T11:36:28;101705.81;;;28.67;33.77
64388;BME280;50709;52.648;4.764;2023-06-10T11:39:01;101704.97;;;28.20;34.35
64388;BME280;50709;52.648;4.764;2023-06-10T11:41:29;101708.16;;;28.58;33.98
64388;BME280;50709;52.648;4.764;2023-06-10T11:44:14;101716.75;;;28.79;36.91
64388;BME280;50709;52.648;4.764;2023-06-10T11:47:01;101707.09;;;29.05;33.55
64388;BME280;50709;52.648;4.764;2023-06-10T11:49:28;101710.72;;;29.18;33.24
64388;BME280;50709;52.648;4.764;2023-06-10T11:51:53;101704.53;;;27.96;33.35
64388;BME280;50709;52.648;4.764;2023-06-10T11:54:19;101702.06;;;28.70;32.84
64388;BME280;50709;52.648;4.764;2023-06-10T11:56:44;101703.13;;;28.96;33.38
64388;BME280;50709;52.648;4.764;2023-06-10T11:59:11;101704.94;;;29.25;33.69
64388;BME280;50709;52.648;4.764;2023-06-10T12:01:57;101706.91;;;29.79;33.24
64388;BME280;50709;52.648;4.764;2023-06-10T12:04:23;101664.34;;;29.15;32.97
64388;BME280;50709;52.648;4.764;2023-06-10T12:06:53;101689.91;;;29.08;33.48
64388;BME280;50709;52.648;4.764;2023-06-10T12:09:30;101672.69;;;28.81;33.38
64388;BME280;50709;52.648;4.764;2023-06-10T12:12:05;101683.28;;;29.28;35.22
64388;BME280;50709;52.648;4.764;2023-06-10T12:14:56;101703.91;;;29.83;32.97
64388;BME280;50709;52.648;4.764;2023-06-10T12:19:59;101690.47;;;29.13;33.54
64388;BME280;50709;52.648;4.764;2023-06-10T12:22:25;101685.91;;;29.98;33.62
64388;BME280;50709;52.648;4.764;2023-06-10T12:25:17;101700.72;;;29.20;33.33
64388;BME280;50709;52.648;4.764;2023-06-10T12:28:00;101691.03;;;29.74;33.10
64388;BME280;50709;52.648;4.764;2023-06-10T12:30:26;101678.91;;;29.81;34.93
64388;BME280;50709;52.648;4.764;2023-06-10T12:32:52;101685.97;;;29.28;33.53
64388;BME280;50709;52.648;4.764;2023-06-10T12:35:21;101691.88;;;29.47;32.31
64388;BME280;50709;52.648;4.764;2023-06-10T12:40:34;101694.00;;;29.13;33.70
64388;BME280;50709;52.648;4.764;2023-06-10T12:43:01;101689.50;;;29.43;34.76
64388;BME280;50709;52.648;4.764;2023-06-10T12:45:34;101677.72;;;30.00;34.27
64388;BME280;50709;52.648;4.764;2023-06-10T12:48:11;101675.13;;;29.29;33.86
64388;BME280;50709;52.648;4.764;2023-06-10T12:50:41;101687.47;;;29.88;33.33
64388;BME280;50709;52.648;4.764;2023-06-10T12:53:07;101666.28;;;29.96;32.74
64388;BME280;50709;52.648;4.764;2023-06-10T12:55:33;101677.31;;;30.19;34.33
64388;BME280;50709;52.648;4.764;2023-06-10T12:58:00;101673.00;;;30.16;34.57
64388;BME280;50709;52.648;4.764;2023-06-10T13:00:28;101641.88;;;29.58;33.02
64388;BME280;50709;52.648;4.764;2023-06-10T13:03:02;101683.47;;;29.66;33.43
64388;BME280;50709;52.648;4.764;2023-06-10T13:05:28;101680.84;;;29.79;33.63
64388;BME280;50709;52.648;4.764;2023-06-10T13:08:14;101670.25;;;29.91;33.00